Disclaimer

Please do not use the information listed here in-flight or in-navigation, as they are not provided to us by the airports but are provided by volunteers, so they might be outdated.

Search


Regions


Airport information page

Radio informations:
LORRAINE APP - 127.25 MHz
AFIS EPINAL INFO - 120.2 MHz

Airport informations:
Latitude: 48° 19' 29.86" N
Longitude: 006° 04' 11.94" E
Elevation: 1084 feet - 330 meters
Operating hours: Remarks
Operating agency: Civil government, landing fees and diplomatic clearance may be required
Timezone: UTC+1(+2DT) - Last Sunday in March to last Sunday in October
Fuel: Jet A1, without icing nhibitor.

100/130 MIL Spec, low lead, aviation gasoline (BLUE)

Runway information:
09/27 - 8858 x 147 feet< - >2700 x 45 meters

Recent METARs:
LFSG 192100Z AUTO 05010KT 9999 BKN038 OVC054 00/M01 Q1005
LFSG 192130Z AUTO 05010KT 9999 BKN037 BKN045 OVC140 00/M01 Q1004
LFSG 192200Z AUTO 03008KT CAVOK 00/M02 Q1004

Airport on the map: